sensor_id;sensor_type;location;lat;lon;timestamp;P1;durP1;ratioP1;P2;durP2;ratioP2
8488;SDS011;4281;45.772;12.852;2022-11-14T00:01:18;16.23;;;14.63;;
8488;SDS011;4281;45.772;12.852;2022-11-14T00:03:48;15.80;;;14.20;;
8488;SDS011;4281;45.772;12.852;2022-11-14T00:09:04;16.73;;;15.13;;
8488;SDS011;4281;45.772;12.852;2022-11-14T00:11:32;16.53;;;14.83;;
8488;SDS011;4281;45.772;12.852;2022-11-14T00:14:01;15.80;;;13.80;;
8488;SDS011;4281;45.772;12.852;2022-11-14T00:16:28;17.33;;;15.53;;
8488;SDS011;4281;45.772;12.852;2022-11-14T00:18:56;15.73;;;14.23;;
8488;SDS011;4281;45.772;12.852;2022-11-14T00:21:24;17.10;;;15.40;;
8488;SDS011;4281;45.772;12.852;2022-11-14T00:23:51;16.27;;;14.57;;
8488;SDS011;4281;45.772;12.852;2022-11-14T00:26:19;16.10;;;14.50;;
8488;SDS011;4281;45.772;12.852;2022-11-14T00:28:47;15.30;;;13.83;;
8488;SDS011;4281;45.772;12.852;2022-11-14T00:31:16;15.47;;;13.87;;
8488;SDS011;4281;45.772;12.852;2022-11-14T00:33:43;14.07;;;12.67;;
8488;SDS011;4281;45.772;12.852;2022-11-14T00:36:11;14.73;;;13.33;;
8488;SDS011;4281;45.772;12.852;2022-11-14T00:38:39;13.97;;;12.67;;
8488;SDS011;4281;45.772;12.852;2022-11-14T00:41:07;14.03;;;12.53;;
8488;SDS011;4281;45.772;12.852;2022-11-14T00:43:34;13.47;;;12.10;;
8488;SDS011;4281;45.772;12.852;2022-11-14T00:46:02;14.20;;;12.87;;
8488;SDS011;4281;45.772;12.852;2022-11-14T00:48:31;14.20;;;12.87;;
8488;SDS011;4281;45.772;12.852;2022-11-14T00:50:59;14.60;;;13.20;;
8488;SDS011;4281;45.772;12.852;2022-11-14T00:53:27;13.80;;;12.50;;
8488;SDS011;4281;45.772;12.852;2022-11-14T00:55:55;14.33;;;13.03;;
8488;SDS011;4281;45.772;12.852;2022-11-14T00:58:22;14.47;;;13.07;;
8488;SDS011;4281;45.772;12.852;2022-11-14T01:00:50;12.80;;;11.60;;
8488;SDS011;4281;45.772;12.852;2022-11-14T01:03:18;13.60;;;12.40;;
8488;SDS011;4281;45.772;12.852;2022-11-14T01:05:48;14.17;;;12.77;;
8488;SDS011;4281;45.772;12.852;2022-11-14T01:08:17;12.83;;;11.73;;
8488;SDS011;4281;45.772;12.852;2022-11-14T01:10:46;12.60;;;11.40;;
8488;SDS011;4281;45.772;12.852;2022-11-14T01:13:15;11.20;;;10.20;;
8488;SDS011;4281;45.772;12.852;2022-11-14T01:15:45;12.73;;;11.53;;
8488;SDS011;4281;45.772;12.852;2022-11-14T01:18:15;11.80;;;10.70;;
8488;SDS011;4281;45.772;12.852;2022-11-14T01:20:44;11.87;;;10.77;;
8488;SDS011;4281;45.772;12.852;2022-11-14T01:23:15;11.77;;;10.67;;
8488;SDS011;4281;45.772;12.852;2022-11-14T01:25:43;12.57;;;11.37;;
8488;SDS011;4281;45.772;12.852;2022-11-14T01:28:11;12.20;;;10.93;;
8488;SDS011;4281;45.772;12.852;2022-11-14T01:30:40;11.10;;;10.10;;
8488;SDS011;4281;45.772;12.852;2022-11-14T01:33:08;11.77;;;10.67;;
8488;SDS011;4281;45.772;12.852;2022-11-14T01:35:36;11.23;;;10.20;;
8488;SDS011;4281;45.772;12.852;2022-11-14T01:38:05;12.10;;;10.93;;
8488;SDS011;4281;45.772;12.852;2022-11-14T01:40:34;12.23;;;11.03;;
8488;SDS011;4281;45.772;12.852;2022-11-14T01:43:20;10.80;;;9.80;;
8488;SDS011;4281;45.772;12.852;2022-11-14T01:45:52;11.30;;;10.20;;
8488;SDS011;4281;45.772;12.852;2022-11-14T01:48:23;11.60;;;10.50;;
8488;SDS011;4281;45.772;12.852;2022-11-14T01:50:55;11.27;;;10.17;;
8488;SDS011;4281;45.772;12.852;2022-11-14T01:53:24;11.00;;;9.93;;
8488;SDS011;4281;45.772;12.852;2022-11-14T01:55:54;11.37;;;10.30;;
8488;SDS011;4281;45.772;12.852;2022-11-14T01:58:23;11.47;;;10.27;;
8488;SDS011;4281;45.772;12.852;2022-11-14T02:00:53;11.27;;;10.17;;
8488;SDS011;4281;45.772;12.852;2022-11-14T02:03:20;11.13;;;10.13;;
8488;SDS011;4281;45.772;12.852;2022-11-14T02:05:48;13.10;;;11.80;;
8488;SDS011;4281;45.772;12.852;2022-11-14T02:08:16;11.87;;;10.87;;
8488;SDS011;4281;45.772;12.852;2022-11-14T02:10:44;11.40;;;10.20;;
8488;SDS011;4281;45.772;12.852;2022-11-14T02:13:13;11.80;;;10.67;;
8488;SDS011;4281;45.772;12.852;2022-11-14T02:15:41;12.07;;;10.87;;
8488;SDS011;4281;45.772;12.852;2022-11-14T02:18:08;11.97;;;10.77;;
8488;SDS011;4281;45.772;12.852;2022-11-14T02:20:38;11.90;;;10.77;;
8488;SDS011;4281;45.772;12.852;2022-11-14T02:23:09;10.57;;;9.57;;
8488;SDS011;4281;45.772;12.852;2022-11-14T02:25:37;10.60;;;9.60;;
8488;SDS011;4281;45.772;12.852;2022-11-14T02:28:05;10.47;;;9.47;;
8488;SDS011;4281;45.772;12.852;2022-11-14T02:30:34;10.37;;;9.37;;
8488;SDS011;4281;45.772;12.852;2022-11-14T02:33:01;10.53;;;9.57;;
8488;SDS011;4281;45.772;12.852;2022-11-14T02:35:38;11.00;;;9.90;;
8488;SDS011;4281;45.772;12.852;2022-11-14T02:38:06;9.83;;;8.97;;
8488;SDS011;4281;45.772;12.852;2022-11-14T02:40:34;10.40;;;9.40;;
8488;SDS011;4281;45.772;12.852;2022-11-14T02:43:02;11.83;;;10.73;;
8488;SDS011;4281;45.772;12.852;2022-11-14T02:45:29;11.60;;;10.50;;
8488;SDS011;4281;45.772;12.852;2022-11-14T02:47:57;11.43;;;10.33;;
8488;SDS011;4281;45.772;12.852;2022-11-14T02:50:25;11.43;;;10.23;;
8488;SDS011;4281;45.772;12.852;2022-11-14T02:52:54;10.67;;;9.67;;
8488;SDS011;4281;45.772;12.852;2022-11-14T02:55:21;11.13;;;10.00;;
8488;SDS011;4281;45.772;12.852;2022-11-14T02:57:49;10.53;;;9.43;;
8488;SDS011;4281;45.772;12.852;2022-11-14T03:00:17;10.50;;;9.43;;
8488;SDS011;4281;45.772;12.852;2022-11-14T03:02:45;11.63;;;10.53;;
8488;SDS011;4281;45.772;12.852;2022-11-14T03:05:13;10.67;;;9.67;;
8488;SDS011;4281;45.772;12.852;2022-11-14T03:07:41;11.07;;;10.07;;
8488;SDS011;4281;45.772;12.852;2022-11-14T03:10:10;10.83;;;9.80;;
8488;SDS011;4281;45.772;12.852;2022-11-14T03:12:39;10.83;;;9.83;;
8488;SDS011;4281;45.772;12.852;2022-11-14T03:15:07;10.83;;;9.83;;
8488;SDS011;4281;45.772;12.852;2022-11-14T03:17:36;12.00;;;10.80;;
8488;SDS011;4281;45.772;12.852;2022-11-14T03:20:04;12.30;;;11.00;;
8488;SDS011;4281;45.772;12.852;2022-11-14T03:22:32;13.20;;;11.93;;
8488;SDS011;4281;45.772;12.852;2022-11-14T03:25:00;11.83;;;10.73;;
8488;SDS011;4281;45.772;12.852;2022-11-14T03:27:29;12.53;;;11.27;;
8488;SDS011;4281;45.772;12.852;2022-11-14T03:29:57;12.37;;;11.17;;
8488;SDS011;4281;45.772;12.852;2022-11-14T03:32:24;12.93;;;11.63;;
8488;SDS011;4281;45.772;12.852;2022-11-14T03:34:52;12.10;;;11.00;;
8488;SDS011;4281;45.772;12.852;2022-11-14T03:37:20;11.83;;;10.63;;
8488;SDS011;4281;45.772;12.852;2022-11-14T03:39:47;12.50;;;10.83;;
8488;SDS011;4281;45.772;12.852;2022-11-14T03:42:15;11.27;;;10.20;;
8488;SDS011;4281;45.772;12.852;2022-11-14T03:44:44;10.33;;;9.30;;
8488;SDS011;4281;45.772;12.852;2022-11-14T03:47:12;10.57;;;9.50;;
8488;SDS011;4281;45.772;12.852;2022-11-14T03:49:39;10.67;;;9.67;;
8488;SDS011;4281;45.772;12.852;2022-11-14T03:52:10;10.40;;;9.40;;
8488;SDS011;4281;45.772;12.852;2022-11-14T03:54:38;9.97;;;9.03;;
8488;SDS011;4281;45.772;12.852;2022-11-14T03:57:06;10.00;;;9.10;;
8488;SDS011;4281;45.772;12.852;2022-11-14T03:59:33;8.70;;;7.90;;
8488;SDS011;4281;45.772;12.852;2022-11-14T04:02:02;8.97;;;8.17;;
8488;SDS011;4281;45.772;12.852;2022-11-14T04:04:30;9.00;;;8.10;;
8488;SDS011;4281;45.772;12.852;2022-11-14T04:09:44;8.20;;;7.50;;
8488;SDS011;4281;45.772;12.852;2022-11-14T04:12:12;7.93;;;7.20;;
8488;SDS011;4281;45.772;12.852;2022-11-14T04:14:41;8.03;;;7.33;;
8488;SDS011;4281;45.772;12.852;2022-11-14T04:17:10;7.70;;;7.00;;
8488;SDS011;4281;45.772;12.852;2022-11-14T04:19:38;7.67;;;6.97;;
8488;SDS011;4281;45.772;12.852;2022-11-14T04:22:05;8.17;;;7.47;;
8488;SDS011;4281;45.772;12.852;2022-11-14T04:24:33;9.10;;;8.20;;
8488;SDS011;4281;45.772;12.852;2022-11-14T04:27:01;8.00;;;7.30;;
8488;SDS011;4281;45.772;12.852;2022-11-14T04:29:28;7.93;;;7.23;;
8488;SDS011;4281;45.772;12.852;2022-11-14T04:31:56;7.93;;;7.13;;
8488;SDS011;4281;45.772;12.852;2022-11-14T04:34:25;7.50;;;6.80;;
8488;SDS011;4281;45.772;12.852;2022-11-14T04:36:53;8.03;;;7.30;;
8488;SDS011;4281;45.772;12.852;2022-11-14T04:39:20;7.57;;;6.87;;
8488;SDS011;4281;45.772;12.852;2022-11-14T04:41:48;8.30;;;7.60;;
8488;SDS011;4281;45.772;12.852;2022-11-14T04:44:16;7.40;;;6.70;;
8488;SDS011;4281;45.772;12.852;2022-11-14T04:46:43;7.70;;;7.00;;
8488;SDS011;4281;45.772;12.852;2022-11-14T04:49:11;8.00;;;7.30;;
8488;SDS011;4281;45.772;12.852;2022-11-14T04:51:40;8.10;;;7.30;;
8488;SDS011;4281;45.772;12.852;2022-11-14T04:54:08;6.67;;;6.07;;
8488;SDS011;4281;45.772;12.852;2022-11-14T04:56:36;6.93;;;6.23;;
8488;SDS011;4281;45.772;12.852;2022-11-14T04:59:04;7.20;;;6.60;;
8488;SDS011;4281;45.772;12.852;2022-11-14T05:01:31;7.03;;;6.43;;
8488;SDS011;4281;45.772;12.852;2022-11-14T05:03:59;7.70;;;7.00;;
8488;SDS011;4281;45.772;12.852;2022-11-14T05:06:27;7.27;;;6.67;;
8488;SDS011;4281;45.772;12.852;2022-11-14T05:08:56;6.60;;;6.00;;
8488;SDS011;4281;45.772;12.852;2022-11-14T05:11:24;7.10;;;6.50;;
8488;SDS011;4281;45.772;12.852;2022-11-14T05:13:54;6.80;;;6.10;;
8488;SDS011;4281;45.772;12.852;2022-11-14T05:16:22;6.97;;;6.17;;
8488;SDS011;4281;45.772;12.852;2022-11-14T05:18:51;6.80;;;6.20;;
8488;SDS011;4281;45.772;12.852;2022-11-14T05:21:19;6.90;;;6.30;;
8488;SDS011;4281;45.772;12.852;2022-11-14T05:23:47;6.10;;;5.60;;
8488;SDS011;4281;45.772;12.852;2022-11-14T05:26:16;6.17;;;5.67;;
8488;SDS011;4281;45.772;12.852;2022-11-14T05:28:44;6.43;;;5.93;;
8488;SDS011;4281;45.772;12.852;2022-11-14T05:31:13;6.53;;;5.93;;
8488;SDS011;4281;45.772;12.852;2022-11-14T05:33:43;6.00;;;5.40;;
8488;SDS011;4281;45.772;12.852;2022-11-14T05:36:11;6.40;;;5.80;;
8488;SDS011;4281;45.772;12.852;2022-11-14T05:38:40;5.70;;;5.20;;
8488;SDS011;4281;45.772;12.852;2022-11-14T05:41:08;6.27;;;5.60;;
8488;SDS011;4281;45.772;12.852;2022-11-14T05:43:38;5.60;;;5.10;;
8488;SDS011;4281;45.772;12.852;2022-11-14T05:46:08;6.10;;;5.60;;
8488;SDS011;4281;45.772;12.852;2022-11-14T05:48:36;6.00;;;5.43;;
8488;SDS011;4281;45.772;12.852;2022-11-14T05:51:04;5.67;;;5.17;;
8488;SDS011;4281;45.772;12.852;2022-11-14T05:53:33;5.53;;;5.03;;
8488;SDS011;4281;45.772;12.852;2022-11-14T05:56:01;6.53;;;5.60;;
8488;SDS011;4281;45.772;12.852;2022-11-14T05:58:30;5.80;;;5.23;;
8488;SDS011;4281;45.772;12.852;2022-11-14T06:01:03;5.60;;;5.10;;
8488;SDS011;4281;45.772;12.852;2022-11-14T06:03:32;5.53;;;5.03;;
8488;SDS011;4281;45.772;12.852;2022-11-14T06:06:01;6.00;;;5.50;;
8488;SDS011;4281;45.772;12.852;2022-11-14T06:08:30;4.97;;;4.57;;
8488;SDS011;4281;45.772;12.852;2022-11-14T06:11:00;5.80;;;5.23;;
8488;SDS011;4281;45.772;12.852;2022-11-14T06:13:29;5.77;;;5.17;;
8488;SDS011;4281;45.772;12.852;2022-11-14T06:15:57;5.93;;;5.30;;
8488;SDS011;4281;45.772;12.852;2022-11-14T06:18:28;5.40;;;4.90;;
8488;SDS011;4281;45.772;12.852;2022-11-14T06:20:57;5.17;;;4.77;;
8488;SDS011;4281;45.772;12.852;2022-11-14T06:23:25;5.30;;;4.70;;
8488;SDS011;4281;45.772;12.852;2022-11-14T06:25:56;5.20;;;4.70;;
8488;SDS011;4281;45.772;12.852;2022-11-14T06:28:24;4.83;;;4.40;;
8488;SDS011;4281;45.772;12.852;2022-11-14T06:30:55;5.50;;;5.00;;
8488;SDS011;4281;45.772;12.852;2022-11-14T06:33:24;5.27;;;4.77;;
8488;SDS011;4281;45.772;12.852;2022-11-14T06:35:57;5.40;;;4.80;;
8488;SDS011;4281;45.772;12.852;2022-11-14T06:38:25;5.20;;;4.70;;
8488;SDS011;4281;45.772;12.852;2022-11-14T06:40:59;4.93;;;4.47;;
8488;SDS011;4281;45.772;12.852;2022-11-14T06:43:29;5.57;;;4.80;;
8488;SDS011;4281;45.772;12.852;2022-11-14T06:45:58;5.40;;;4.90;;
8488;SDS011;4281;45.772;12.852;2022-11-14T06:48:26;5.13;;;4.60;;
8488;SDS011;4281;45.772;12.852;2022-11-14T06:50:55;4.60;;;4.20;;
8488;SDS011;4281;45.772;12.852;2022-11-14T06:53:24;5.13;;;4.73;;
8488;SDS011;4281;45.772;12.852;2022-11-14T06:55:54;4.87;;;4.40;;
8488;SDS011;4281;45.772;12.852;2022-11-14T06:58:24;4.30;;;3.93;;
8488;SDS011;4281;45.772;12.852;2022-11-14T07:00:53;4.27;;;3.90;;
8488;SDS011;4281;45.772;12.852;2022-11-14T07:03:20;5.20;;;4.80;;
8488;SDS011;4281;45.772;12.852;2022-11-14T07:05:49;5.07;;;4.60;;
8488;SDS011;4281;45.772;12.852;2022-11-14T07:08:18;5.07;;;4.63;;
8488;SDS011;4281;45.772;12.852;2022-11-14T07:10:46;5.73;;;5.23;;
8488;SDS011;4281;45.772;12.852;2022-11-14T07:13:14;5.70;;;5.20;;
8488;SDS011;4281;45.772;12.852;2022-11-14T07:15:48;4.70;;;4.30;;
8488;SDS011;4281;45.772;12.852;2022-11-14T07:18:16;4.97;;;4.57;;
8488;SDS011;4281;45.772;12.852;2022-11-14T07:20:44;5.50;;;5.00;;
8488;SDS011;4281;45.772;12.852;2022-11-14T07:23:11;5.33;;;4.83;;
8488;SDS011;4281;45.772;12.852;2022-11-14T07:25:41;5.17;;;4.77;;
8488;SDS011;4281;45.772;12.852;2022-11-14T07:28:09;5.40;;;4.90;;
8488;SDS011;4281;45.772;12.852;2022-11-14T07:30:36;5.43;;;4.93;;
8488;SDS011;4281;45.772;12.852;2022-11-14T07:33:04;5.80;;;5.27;;
8488;SDS011;4281;45.772;12.852;2022-11-14T07:35:32;5.40;;;4.90;;
8488;SDS011;4281;45.772;12.852;2022-11-14T07:38:00;5.30;;;4.80;;
8488;SDS011;4281;45.772;12.852;2022-11-14T07:40:28;4.57;;;4.17;;
8488;SDS011;4281;45.772;12.852;2022-11-14T07:42:58;4.73;;;4.23;;
8488;SDS011;4281;45.772;12.852;2022-11-14T07:45:26;5.03;;;4.63;;
8488;SDS011;4281;45.772;12.852;2022-11-14T07:47:55;5.00;;;4.60;;
8488;SDS011;4281;45.772;12.852;2022-11-14T07:50:23;5.10;;;4.60;;
8488;SDS011;4281;45.772;12.852;2022-11-14T07:52:51;5.60;;;5.10;;
8488;SDS011;4281;45.772;12.852;2022-11-14T07:55:19;5.50;;;5.00;;
8488;SDS011;4281;45.772;12.852;2022-11-14T07:57:47;5.97;;;5.40;;
8488;SDS011;4281;45.772;12.852;2022-11-14T08:00:16;5.50;;;5.00;;
8488;SDS011;4281;45.772;12.852;2022-11-14T08:02:44;5.97;;;5.30;;
8488;SDS011;4281;45.772;12.852;2022-11-14T08:05:12;5.97;;;5.47;;
8488;SDS011;4281;45.772;12.852;2022-11-14T08:10:13;5.40;;;4.87;;
8488;SDS011;4281;45.772;12.852;2022-11-14T08:12:42;5.33;;;4.93;;
8488;SDS011;4281;45.772;12.852;2022-11-14T08:15:11;5.50;;;4.87;;
8488;SDS011;4281;45.772;12.852;2022-11-14T08:17:40;5.73;;;5.23;;
8488;SDS011;4281;45.772;12.852;2022-11-14T08:20:08;5.83;;;5.33;;
8488;SDS011;4281;45.772;12.852;2022-11-14T08:22:37;5.40;;;4.90;;
8488;SDS011;4281;45.772;12.852;2022-11-14T08:25:05;5.57;;;5.07;;
8488;SDS011;4281;45.772;12.852;2022-11-14T08:27:33;5.60;;;5.10;;
8488;SDS011;4281;45.772;12.852;2022-11-14T08:30:01;5.47;;;4.97;;
8488;SDS011;4281;45.772;12.852;2022-11-14T08:32:28;5.80;;;5.30;;
8488;SDS011;4281;45.772;12.852;2022-11-14T08:34:57;5.90;;;4.87;;
8488;SDS011;4281;45.772;12.852;2022-11-14T08:37:25;6.13;;;5.33;;
8488;SDS011;4281;45.772;12.852;2022-11-14T08:39:53;6.13;;;5.60;;
8488;SDS011;4281;45.772;12.852;2022-11-14T08:42:20;5.87;;;5.37;;
8488;SDS011;4281;45.772;12.852;2022-11-14T08:44:48;5.93;;;5.43;;
8488;SDS011;4281;45.772;12.852;2022-11-14T08:47:17;5.83;;;4.90;;
8488;SDS011;4281;45.772;12.852;2022-11-14T08:49:47;5.87;;;4.90;;
8488;SDS011;4281;45.772;12.852;2022-11-14T08:52:16;5.90;;;5.30;;
8488;SDS011;4281;45.772;12.852;2022-11-14T08:54:44;5.20;;;4.73;;
8488;SDS011;4281;45.772;12.852;2022-11-14T08:57:11;6.03;;;5.43;;
8488;SDS011;4281;45.772;12.852;2022-11-14T08:59:40;5.37;;;4.87;;
8488;SDS011;4281;45.772;12.852;2022-11-14T09:02:08;5.90;;;5.30;;
8488;SDS011;4281;45.772;12.852;2022-11-14T09:04:36;5.77;;;5.17;;
8488;SDS011;4281;45.772;12.852;2022-11-14T09:07:04;5.30;;;4.83;;
8488;SDS011;4281;45.772;12.852;2022-11-14T09:09:34;5.43;;;4.83;;
8488;SDS011;4281;45.772;12.852;2022-11-14T09:12:03;6.27;;;5.67;;
8488;SDS011;4281;45.772;12.852;2022-11-14T09:14:31;6.23;;;5.23;;
8488;SDS011;4281;45.772;12.852;2022-11-14T09:16:59;5.70;;;4.90;;
8488;SDS011;4281;45.772;12.852;2022-11-14T09:19:31;5.20;;;4.80;;
8488;SDS011;4281;45.772;12.852;2022-11-14T09:21:59;5.07;;;4.67;;
8488;SDS011;4281;45.772;12.852;2022-11-14T09:24:26;5.23;;;4.83;;
8488;SDS011;4281;45.772;12.852;2022-11-14T09:26:55;5.47;;;4.97;;
8488;SDS011;4281;45.772;12.852;2022-11-14T09:29:23;4.60;;;4.20;;
8488;SDS011;4281;45.772;12.852;2022-11-14T09:31:51;4.90;;;4.50;;
8488;SDS011;4281;45.772;12.852;2022-11-14T09:34:22;4.23;;;3.83;;
8488;SDS011;4281;45.772;12.852;2022-11-14T09:36:49;4.97;;;4.50;;
8488;SDS011;4281;45.772;12.852;2022-11-14T09:39:17;4.93;;;4.53;;
8488;SDS011;4281;45.772;12.852;2022-11-14T09:41:49;4.37;;;4.07;;
8488;SDS011;4281;45.772;12.852;2022-11-14T09:44:37;3.93;;;3.63;;
8488;SDS011;4281;45.772;12.852;2022-11-14T09:47:12;3.90;;;3.60;;
8488;SDS011;4281;45.772;12.852;2022-11-14T09:49:46;4.40;;;4.00;;
8488;SDS011;4281;45.772;12.852;2022-11-14T09:52:19;4.10;;;3.70;;
8488;SDS011;4281;45.772;12.852;2022-11-14T09:54:52;3.73;;;3.43;;
8488;SDS011;4281;45.772;12.852;2022-11-14T09:57:22;3.93;;;3.57;;
8488;SDS011;4281;45.772;12.852;2022-11-14T09:59:53;4.00;;;3.70;;
8488;SDS011;4281;45.772;12.852;2022-11-14T10:02:32;4.00;;;3.60;;
8488;SDS011;4281;45.772;12.852;2022-11-14T10:05:10;3.60;;;3.30;;
8488;SDS011;4281;45.772;12.852;2022-11-14T10:10:26;4.10;;;3.70;;
8488;SDS011;4281;45.772;12.852;2022-11-14T10:13:07;4.13;;;3.77;;
8488;SDS011;4281;45.772;12.852;2022-11-14T10:15:46;3.90;;;3.60;;
8488;SDS011;4281;45.772;12.852;2022-11-14T10:18:24;3.97;;;3.67;;
8488;SDS011;4281;45.772;12.852;2022-11-14T10:21:00;3.37;;;3.07;;
8488;SDS011;4281;45.772;12.852;2022-11-14T10:23:38;4.00;;;3.60;;
8488;SDS011;4281;45.772;12.852;2022-11-14T10:26:13;4.13;;;3.73;;
8488;SDS011;4281;45.772;12.852;2022-11-14T10:28:52;3.67;;;3.37;;
8488;SDS011;4281;45.772;12.852;2022-11-14T10:31:33;3.73;;;3.43;;
8488;SDS011;4281;45.772;12.852;2022-11-14T10:34:10;3.30;;;3.00;;
8488;SDS011;4281;45.772;12.852;2022-11-14T10:36:44;3.20;;;2.90;;
8488;SDS011;4281;45.772;12.852;2022-11-14T10:39:17;3.67;;;2.90;;
8488;SDS011;4281;45.772;12.852;2022-11-14T10:41:51;3.57;;;3.27;;
8488;SDS011;4281;45.772;12.852;2022-11-14T10:44:28;3.20;;;2.97;;
8488;SDS011;4281;45.772;12.852;2022-11-14T10:47:01;3.17;;;2.87;;
8488;SDS011;4281;45.772;12.852;2022-11-14T10:49:32;3.10;;;2.80;;
8488;SDS011;4281;45.772;12.852;2022-11-14T10:52:03;3.17;;;2.90;;
8488;SDS011;4281;45.772;12.852;2022-11-14T10:54:33;3.03;;;2.73;;
8488;SDS011;4281;45.772;12.852;2022-11-14T10:57:11;3.27;;;3.00;;
8488;SDS011;4281;45.772;12.852;2022-11-14T10:59:41;3.00;;;2.80;;
8488;SDS011;4281;45.772;12.852;2022-11-14T11:02:10;2.83;;;2.53;;
8488;SDS011;4281;45.772;12.852;2022-11-14T11:04:38;2.87;;;2.67;;
8488;SDS011;4281;45.772;12.852;2022-11-14T11:07:22;3.47;;;2.60;;
8488;SDS011;4281;45.772;12.852;2022-11-14T11:10:18;2.97;;;2.67;;
8488;SDS011;4281;45.772;12.852;2022-11-14T11:13:04;2.30;;;2.10;;
8488;SDS011;4281;45.772;12.852;2022-11-14T11:15:38;2.30;;;2.13;;
8488;SDS011;4281;45.772;12.852;2022-11-14T11:21:02;2.27;;;2.07;;
8488;SDS011;4281;45.772;12.852;2022-11-14T11:23:32;2.47;;;2.27;;
8488;SDS011;4281;45.772;12.852;2022-11-14T11:26:00;2.40;;;2.20;;
8488;SDS011;4281;45.772;12.852;2022-11-14T11:28:33;3.03;;;2.00;;
8488;SDS011;4281;45.772;12.852;2022-11-14T11:31:02;2.10;;;2.00;;
8488;SDS011;4281;45.772;12.852;2022-11-14T11:33:32;2.50;;;2.30;;
8488;SDS011;4281;45.772;12.852;2022-11-14T11:36:02;2.73;;;2.30;;
8488;SDS011;4281;45.772;12.852;2022-11-14T11:38:31;2.20;;;1.90;;
8488;SDS011;4281;45.772;12.852;2022-11-14T11:41:03;2.33;;;2.13;;
8488;SDS011;4281;45.772;12.852;2022-11-14T11:43:52;2.07;;;1.90;;
8488;SDS011;4281;45.772;12.852;2022-11-14T11:46:24;2.40;;;2.20;;
8488;SDS011;4281;45.772;12.852;2022-11-14T11:48:54;2.50;;;2.30;;
8488;SDS011;4281;45.772;12.852;2022-11-14T11:51:39;2.10;;;2.00;;
8488;SDS011;4281;45.772;12.852;2022-11-14T11:54:09;2.70;;;2.50;;
8488;SDS011;4281;45.772;12.852;2022-11-14T11:56:40;3.17;;;2.87;;
8488;SDS011;4281;45.772;12.852;2022-11-14T11:59:16;2.80;;;2.60;;
8488;SDS011;4281;45.772;12.852;2022-11-14T12:01:48;2.93;;;2.63;;
8488;SDS011;4281;45.772;12.852;2022-11-14T12:04:18;3.17;;;2.87;;
8488;SDS011;4281;45.772;12.852;2022-11-14T12:06:47;3.00;;;2.80;;
8488;SDS011;4281;45.772;12.852;2022-11-14T12:09:20;3.30;;;3.00;;
8488;SDS011;4281;45.772;12.852;2022-11-14T12:12:10;3.60;;;3.30;;
8488;SDS011;4281;45.772;12.852;2022-11-14T12:14:48;3.10;;;2.80;;
8488;SDS011;4281;45.772;12.852;2022-11-14T12:17:31;3.33;;;3.03;;
8488;SDS011;4281;45.772;12.852;2022-11-14T12:23:24;3.63;;;3.33;;
8488;SDS011;4281;45.772;12.852;2022-11-14T12:26:14;3.63;;;3.33;;
8488;SDS011;4281;45.772;12.852;2022-11-14T12:29:00;3.83;;;3.33;;
8488;SDS011;4281;45.772;12.852;2022-11-14T12:31:38;3.63;;;3.27;;
8488;SDS011;4281;45.772;12.852;2022-11-14T12:34:10;3.10;;;2.80;;
8488;SDS011;4281;45.772;12.852;2022-11-14T12:36:42;3.27;;;2.97;;
8488;SDS011;4281;45.772;12.852;2022-11-14T12:39:21;3.23;;;2.80;;
8488;SDS011;4281;45.772;12.852;2022-11-14T12:41:50;2.83;;;2.57;;
8488;SDS011;4281;45.772;12.852;2022-11-14T12:44:31;2.83;;;2.63;;
8488;SDS011;4281;45.772;12.852;2022-11-14T12:47:15;3.30;;;3.00;;
8488;SDS011;4281;45.772;12.852;2022-11-14T12:56:15;3.00;;;2.80;;
8488;SDS011;4281;45.772;12.852;2022-11-14T12:58:56;3.40;;;2.70;;
8488;SDS011;4281;45.772;12.852;2022-11-14T13:01:45;2.90;;;2.70;;
8488;SDS011;4281;45.772;12.852;2022-11-14T13:04:21;2.20;;;2.00;;
8488;SDS011;4281;45.772;12.852;2022-11-14T13:06:57;2.50;;;2.30;;
8488;SDS011;4281;45.772;12.852;2022-11-14T13:09:31;2.20;;;2.10;;
8488;SDS011;4281;45.772;12.852;2022-11-14T13:15:26;2.10;;;2.00;;
8488;SDS011;4281;45.772;12.852;2022-11-14T13:18:27;2.33;;;2.10;;
8488;SDS011;4281;45.772;12.852;2022-11-14T13:21:16;2.10;;;2.00;;
8488;SDS011;4281;45.772;12.852;2022-11-14T13:24:11;2.70;;;2.50;;
8488;SDS011;4281;45.772;12.852;2022-11-14T13:26:42;2.67;;;2.47;;
8488;SDS011;4281;45.772;12.852;2022-11-14T13:38:50;3.20;;;2.90;;
8488;SDS011;4281;45.772;12.852;2022-11-14T13:41:28;3.47;;;2.90;;
8488;SDS011;4281;45.772;12.852;2022-11-14T13:47:17;3.47;;;3.17;;
8488;SDS011;4281;45.772;12.852;2022-11-14T13:49:53;3.50;;;3.20;;
8488;SDS011;4281;45.772;12.852;2022-11-14T13:52:27;3.93;;;3.57;;
8488;SDS011;4281;45.772;12.852;2022-11-14T13:54:57;4.53;;;4.07;;
8488;SDS011;4281;45.772;12.852;2022-11-14T13:57:27;4.10;;;3.80;;
8488;SDS011;4281;45.772;12.852;2022-11-14T14:00:04;4.60;;;4.20;;
8488;SDS011;4281;45.772;12.852;2022-11-14T14:05:38;4.30;;;3.90;;
8488;SDS011;4281;45.772;12.852;2022-11-14T14:11:01;3.47;;;3.17;;
8488;SDS011;4281;45.772;12.852;2022-11-14T14:13:38;3.33;;;3.13;;
8488;SDS011;4281;45.772;12.852;2022-11-14T14:16:16;3.03;;;2.77;;
8488;SDS011;4281;45.772;12.852;2022-11-14T14:18:50;3.13;;;2.83;;
8488;SDS011;4281;45.772;12.852;2022-11-14T14:21:27;3.70;;;3.27;;
8488;SDS011;4281;45.772;12.852;2022-11-14T14:24:03;3.23;;;2.93;;
8488;SDS011;4281;45.772;12.852;2022-11-14T14:26:37;3.10;;;2.80;;
8488;SDS011;4281;45.772;12.852;2022-11-14T14:29:14;3.37;;;3.07;;
8488;SDS011;4281;45.772;12.852;2022-11-14T14:31:47;3.47;;;3.27;;
8488;SDS011;4281;45.772;12.852;2022-11-14T14:34:20;3.67;;;3.30;;
8488;SDS011;4281;45.772;12.852;2022-11-14T14:36:49;3.30;;;2.90;;
8488;SDS011;4281;45.772;12.852;2022-11-14T14:39:18;3.13;;;2.93;;
8488;SDS011;4281;45.772;12.852;2022-11-14T14:41:48;4.27;;;3.03;;
8488;SDS011;4281;45.772;12.852;2022-11-14T14:44:18;2.87;;;2.67;;
8488;SDS011;4281;45.772;12.852;2022-11-14T14:46:48;3.33;;;3.03;;
8488;SDS011;4281;45.772;12.852;2022-11-14T14:49:17;3.33;;;3.03;;
8488;SDS011;4281;45.772;12.852;2022-11-14T14:51:47;2.70;;;2.50;;
8488;SDS011;4281;45.772;12.852;2022-11-14T14:54:23;3.23;;;2.93;;
8488;SDS011;4281;45.772;12.852;2022-11-14T14:56:53;3.87;;;3.30;;
8488;SDS011;4281;45.772;12.852;2022-11-14T14:59:22;4.07;;;3.67;;
8488;SDS011;4281;45.772;12.852;2022-11-14T15:01:51;4.23;;;3.83;;
8488;SDS011;4281;45.772;12.852;2022-11-14T15:04:21;4.23;;;3.90;;
8488;SDS011;4281;45.772;12.852;2022-11-14T15:06:49;4.30;;;3.90;;
8488;SDS011;4281;45.772;12.852;2022-11-14T15:09:19;4.60;;;4.20;;
8488;SDS011;4281;45.772;12.852;2022-11-14T15:11:48;4.70;;;4.20;;
8488;SDS011;4281;45.772;12.852;2022-11-14T15:14:19;5.43;;;4.93;;
8488;SDS011;4281;45.772;12.852;2022-11-14T15:16:48;4.90;;;4.50;;
8488;SDS011;4281;45.772;12.852;2022-11-14T15:19:18;5.77;;;5.27;;
8488;SDS011;4281;45.772;12.852;2022-11-14T15:25:03;4.90;;;4.50;;
8488;SDS011;4281;45.772;12.852;2022-11-14T15:27:44;5.30;;;4.80;;
8488;SDS011;4281;45.772;12.852;2022-11-14T15:30:22;5.40;;;5.00;;
8488;SDS011;4281;45.772;12.852;2022-11-14T15:32:51;6.07;;;5.47;;
8488;SDS011;4281;45.772;12.852;2022-11-14T15:35:24;6.03;;;5.43;;
8488;SDS011;4281;45.772;12.852;2022-11-14T15:38:02;6.30;;;5.70;;
8488;SDS011;4281;45.772;12.852;2022-11-14T15:43:53;5.57;;;5.07;;
8488;SDS011;4281;45.772;12.852;2022-11-14T15:46:31;6.10;;;5.57;;
8488;SDS011;4281;45.772;12.852;2022-11-14T15:49:06;5.83;;;5.33;;
8488;SDS011;4281;45.772;12.852;2022-11-14T15:51:36;6.27;;;5.63;;
8488;SDS011;4281;45.772;12.852;2022-11-14T15:54:16;6.03;;;5.30;;
8488;SDS011;4281;45.772;12.852;2022-11-14T15:56:49;6.70;;;6.10;;
8488;SDS011;4281;45.772;12.852;2022-11-14T15:59:17;8.70;;;7.80;;
8488;SDS011;4281;45.772;12.852;2022-11-14T16:01:47;10.70;;;9.40;;
8488;SDS011;4281;45.772;12.852;2022-11-14T16:04:18;11.33;;;9.97;;
8488;SDS011;4281;45.772;12.852;2022-11-14T16:06:47;15.17;;;12.07;;
8488;SDS011;4281;45.772;12.852;2022-11-14T16:09:15;14.57;;;11.37;;